createdAt,value
2023-10-23T00:02:10.123Z,9.80
2023-10-23T00:10:37.674Z,10.30
2023-10-23T00:19:07.500Z,9.20
2023-10-23T00:27:59.042Z,8.80
2023-10-23T00:36:23.336Z,7.90
2023-10-23T00:44:47.240Z,7.20
2023-10-23T00:53:24.175Z,7.10
2023-10-23T01:01:55.908Z,5.90
2023-10-23T01:10:20.575Z,6.40
2023-10-23T01:18:48.410Z,5.70
2023-10-23T01:27:16.120Z,4.80
2023-10-23T01:35:43.157Z,4.90
2023-10-23T01:44:08.635Z,5.10
2023-10-23T01:52:36.358Z,4.90
2023-10-23T02:01:04.599Z,4.50
2023-10-23T02:09:33.595Z,5.00
2023-10-23T02:18:01.920Z,4.70
2023-10-23T02:26:35.455Z,6.20
2023-10-23T02:35:00.221Z,4.30
2023-10-23T02:43:24.585Z,3.40
2023-10-23T02:51:53.387Z,2.30
2023-10-23T03:00:17.513Z,2.20
2023-10-23T03:08:49.947Z,3.60
2023-10-23T03:17:16.980Z,2.60
2023-10-23T03:25:45.526Z,3.10
2023-10-23T03:34:10.678Z,2.90
2023-10-23T03:42:53.388Z,3.20
2023-10-23T03:51:25.097Z,3.50
2023-10-23T03:59:52.466Z,3.40
2023-10-23T04:08:20.123Z,4.00
2023-10-23T04:16:45.374Z,4.20
2023-10-23T04:25:16.440Z,4.00
2023-10-23T04:33:44.635Z,4.10
2023-10-23T04:42:08.743Z,4.50
2023-10-23T04:50:38.787Z,5.10
2023-10-23T04:59:11.010Z,5.30
2023-10-23T05:07:38.633Z,5.60
2023-10-23T05:16:14.468Z,4.80
2023-10-23T05:24:47.138Z,5.70
2023-10-23T05:33:14.260Z,6.10
2023-10-23T05:41:41.382Z,6.10
2023-10-23T05:50:10.555Z,6.20
2023-10-23T05:58:46.298Z,5.70
2023-10-23T06:07:13.824Z,6.60
2023-10-23T06:15:41.311Z,6.80
2023-10-23T06:24:12.441Z,7.40
2023-10-23T06:32:42.153Z,39.50
2023-10-23T06:41:26.624Z,8.90
2023-10-23T06:49:53.950Z,8.60
2023-10-23T06:58:23.900Z,9.60
2023-10-23T07:06:57.214Z,8.20
2023-10-23T07:15:25.538Z,10.20
2023-10-23T07:23:54.189Z,8.30
2023-10-23T07:32:24.200Z,8.00
2023-10-23T07:40:56.207Z,7.80
2023-10-23T07:49:20.502Z,7.40
2023-10-23T07:57:56.466Z,8.80
2023-10-23T08:06:22.238Z,9.60
2023-10-23T08:14:47.465Z,7.70
2023-10-23T08:23:20.626Z,8.80
2023-10-23T08:31:52.751Z,8.80
2023-10-23T08:40:17.049Z,11.40
2023-10-23T08:48:48.923Z,9.30
2023-10-23T08:57:17.108Z,9.20
2023-10-23T09:05:45.597Z,10.60
2023-10-23T09:14:24.849Z,8.90
2023-10-23T09:22:58.273Z,9.20
2023-10-23T09:31:31.761Z,10.50
2023-10-23T09:40:13.484Z,14.70
2023-10-23T09:48:45.452Z,8.50
2023-10-23T09:57:14.872Z,10.10
2023-10-23T10:05:57.798Z,8.40
2023-10-23T10:14:28.923Z,9.00
2023-10-23T10:23:11.605Z,9.40
2023-10-23T10:32:10.997Z,11.60
2023-10-23T10:41:01.531Z,10.40
2023-10-23T10:49:32.971Z,11.20
2023-10-23T10:58:05.069Z,9.50
2023-10-23T11:06:37.048Z,10.90
2023-10-23T11:15:08.385Z,8.90
2023-10-23T11:23:47.958Z,8.70
2023-10-23T11:32:18.672Z,9.80
2023-10-23T11:40:48.425Z,30.10
2023-10-23T11:49:12.968Z,9.30
2023-10-23T11:57:43.573Z,9.90
2023-10-23T12:06:09.646Z,9.00
2023-10-23T12:14:37.436Z,8.10
2023-10-23T12:23:04.403Z,7.70
2023-10-23T12:31:30.904Z,7.80
2023-10-23T12:40:02.172Z,8.40
2023-10-23T12:48:28.409Z,8.90
2023-10-23T12:56:53.697Z,7.50
2023-10-23T13:05:21.248Z,12.00
2023-10-23T13:13:48.161Z,10.00
2023-10-23T13:22:18.081Z,8.90
2023-10-23T13:30:44.848Z,11.30
2023-10-23T13:39:12.321Z,7.80
2023-10-23T13:47:38.450Z,8.40
2023-10-23T13:56:05.364Z,18.70
2023-10-23T14:04:29.356Z,7.10
2023-10-23T14:12:57.982Z,7.70
2023-10-23T14:21:24.867Z,7.90
2023-10-23T14:29:48.825Z,5.90
2023-10-23T14:38:13.251Z,7.40
2023-10-23T14:46:39.415Z,6.80
2023-10-23T14:55:05.509Z,6.40
2023-10-23T15:03:31.125Z,6.60
2023-10-23T15:11:54.658Z,32.30
2023-10-23T15:20:30.969Z,11.10
2023-10-23T15:28:55.788Z,11.20
2023-10-23T15:37:21.237Z,15.10
2023-10-23T15:45:51.541Z,15.50
2023-10-23T15:54:16.184Z,7.80
2023-10-23T16:02:42.899Z,10.00
2023-10-23T16:11:09.318Z,9.00
2023-10-23T16:19:34.272Z,7.10
2023-10-23T16:28:00.145Z,6.10
2023-10-23T16:36:24.032Z,6.60
2023-10-23T16:44:55.880Z,6.80
2023-10-23T16:53:20.738Z,9.20
2023-10-23T17:01:45.992Z,19.30
2023-10-23T17:10:10.741Z,47.20
2023-10-23T17:18:35.931Z,86.30
2023-10-23T17:27:00.401Z,36.00
2023-10-23T17:35:26.825Z,17.20
2023-10-23T17:43:51.819Z,21.70
2023-10-23T17:52:18.816Z,35.10
2023-10-23T18:00:43.001Z,33.60
2023-10-23T18:09:08.018Z,57.90
2023-10-23T18:17:32.162Z,59.80
2023-10-23T18:26:02.394Z,51.20
2023-10-23T18:34:26.637Z,43.50
2023-10-23T18:43:03.716Z,38.60
2023-10-23T18:51:29.387Z,25.90
2023-10-23T18:59:54.662Z,23.80
2023-10-23T19:08:17.968Z,13.60
2023-10-23T19:16:42.186Z,12.30
2023-10-23T19:25:10.860Z,9.40
2023-10-23T19:33:41.245Z,14.30
2023-10-23T19:42:12.553Z,40.30
2023-10-23T19:50:44.564Z,32.80
2023-10-23T19:59:09.298Z,32.10
2023-10-23T20:07:48.371Z,40.40
2023-10-23T20:16:13.776Z,37.20
2023-10-23T20:24:37.752Z,31.10
2023-10-23T20:33:04.374Z,32.50
2023-10-23T20:41:29.339Z,34.40
2023-10-23T20:49:53.292Z,29.30
2023-10-23T20:58:19.846Z,31.30
2023-10-23T21:06:45.133Z,30.40
2023-10-23T21:15:12.556Z,32.80
2023-10-23T21:23:36.771Z,58.50
2023-10-23T21:32:01.917Z,39.10
2023-10-23T21:40:26.313Z,34.30
2023-10-23T21:48:50.156Z,31.90
2023-10-23T21:57:20.418Z,24.80
2023-10-23T22:05:52.594Z,23.80
2023-10-23T22:14:17.858Z,27.80
2023-10-23T22:22:42.970Z,27.00
2023-10-23T22:31:07.137Z,27.00
2023-10-23T22:39:34.169Z,25.80
2023-10-23T22:47:58.479Z,23.20
2023-10-23T22:56:25.995Z,24.00
2023-10-23T23:04:50.932Z,22.60
2023-10-23T23:13:18.937Z,21.10
2023-10-23T23:21:46.809Z,19.40
2023-10-23T23:30:11.312Z,18.60
2023-10-23T23:38:36.027Z,19.60
2023-10-23T23:47:03.002Z,13.30
2023-10-23T23:55:30.989Z,14.50
